sensor_id;sensor_type;location;lat;lon;timestamp;pressure;altitude;pressure_sealevel;temperature;humidity
62508;BME280;48556;51.972;4.624;2022-09-27T00:01:35;99837.34;;;15.25;59.81
62508;BME280;48556;51.972;4.624;2022-09-27T00:04:00;99840.88;;;15.25;59.36
62508;BME280;48556;51.972;4.624;2022-09-27T00:06:29;99852.56;;;15.58;59.02
62508;BME280;48556;51.972;4.624;2022-09-27T00:08:55;99848.53;;;15.68;59.05
62508;BME280;48556;51.972;4.624;2022-09-27T00:11:34;99844.47;;;15.80;59.19
62508;BME280;48556;51.972;4.624;2022-09-27T00:14:01;99854.28;;;15.95;58.63
62508;BME280;48556;51.972;4.624;2022-09-27T00:16:30;99850.28;;;15.86;58.39
62508;BME280;48556;51.972;4.624;2022-09-27T00:19:02;99850.41;;;15.47;58.76
62508;BME280;48556;51.972;4.624;2022-09-27T00:21:29;99859.91;;;15.70;58.39
62508;BME280;48556;51.972;4.624;2022-09-27T00:23:55;99858.13;;;15.89;58.47
62508;BME280;48556;51.972;4.624;2022-09-27T00:26:22;99853.34;;;15.96;58.82
62508;BME280;48556;51.972;4.624;2022-09-27T00:28:47;99849.69;;;15.99;59.32
62508;BME280;48556;51.972;4.624;2022-09-27T00:31:19;99849.06;;;15.94;59.79
62508;BME280;48556;51.972;4.624;2022-09-27T00:33:49;99846.44;;;15.38;60.60
62508;BME280;48556;51.972;4.624;2022-09-27T00:36:16;99841.38;;;15.70;59.73
62508;BME280;48556;51.972;4.624;2022-09-27T00:38:43;99849.44;;;15.67;59.68
62508;BME280;48556;51.972;4.624;2022-09-27T00:41:14;99846.94;;;15.64;59.65
62508;BME280;48556;51.972;4.624;2022-09-27T00:44:02;99858.28;;;15.48;60.38
62508;BME280;48556;51.972;4.624;2022-09-27T00:49:22;99877.25;;;15.58;61.14
62508;BME280;48556;51.972;4.624;2022-09-27T00:51:56;99870.41;;;14.76;61.18
62508;BME280;48556;51.972;4.624;2022-09-27T00:54:28;99880.63;;;14.65;62.47
62508;BME280;48556;51.972;4.624;2022-09-27T00:56:56;99878.84;;;14.65;62.71
62508;BME280;48556;51.972;4.624;2022-09-27T00:59:26;99871.88;;;14.83;62.43
62508;BME280;48556;51.972;4.624;2022-09-27T01:01:54;99867.47;;;15.03;61.38
62508;BME280;48556;51.972;4.624;2022-09-27T01:04:23;99877.50;;;15.15;61.16
62508;BME280;48556;51.972;4.624;2022-09-27T01:06:51;99881.47;;;15.43;60.70
62508;BME280;48556;51.972;4.624;2022-09-27T01:09:17;99873.84;;;15.37;60.37
62508;BME280;48556;51.972;4.624;2022-09-27T01:23:57;99884.84;;;15.47;60.95
62508;BME280;48556;51.972;4.624;2022-09-27T01:29:27;99886.59;;;15.48;60.74
62508;BME280;48556;51.972;4.624;2022-09-27T01:32:04;99884.00;;;15.46;60.67
62508;BME280;48556;51.972;4.624;2022-09-27T01:39:55;99870.03;;;15.24;61.63
62508;BME280;48556;51.972;4.624;2022-09-27T01:47:30;99881.75;;;14.80;61.92
62508;BME280;48556;51.972;4.624;2022-09-27T01:52:43;99891.59;;;14.35;63.33
62508;BME280;48556;51.972;4.624;2022-09-27T01:55:16;99888.50;;;14.46;63.18
62508;BME280;48556;51.972;4.624;2022-09-27T01:57:55;99880.94;;;14.57;63.21
62508;BME280;48556;51.972;4.624;2022-09-27T02:00:22;99875.66;;;14.57;62.67
62508;BME280;48556;51.972;4.624;2022-09-27T02:03:10;99868.28;;;14.65;62.13
62508;BME280;48556;51.972;4.624;2022-09-27T02:05:52;99867.91;;;14.52;62.31
62508;BME280;48556;51.972;4.624;2022-09-27T02:08:40;99862.50;;;14.56;62.11
62508;BME280;48556;51.972;4.624;2022-09-27T02:11:12;99866.06;;;14.75;61.74
62508;BME280;48556;51.972;4.624;2022-09-27T02:13:49;99856.41;;;14.33;62.78
62508;BME280;48556;51.972;4.624;2022-09-27T02:16:49;99856.69;;;14.68;61.86
62508;BME280;48556;51.972;4.624;2022-09-27T02:19:37;99849.94;;;14.40;62.47
62508;BME280;48556;51.972;4.624;2022-09-27T02:22:15;99852.19;;;14.70;61.84
62508;BME280;48556;51.972;4.624;2022-09-27T02:27:52;99867.78;;;14.56;62.79
62508;BME280;48556;51.972;4.624;2022-09-27T02:30:20;99891.78;;;13.65;63.78
62508;BME280;48556;51.972;4.624;2022-09-27T02:32:45;99880.25;;;12.73;65.35
62508;BME280;48556;51.972;4.624;2022-09-27T02:35:19;99921.34;;;12.28;65.87
62508;BME280;48556;51.972;4.624;2022-09-27T02:37:47;99905.94;;;12.16;65.30
62508;BME280;48556;51.972;4.624;2022-09-27T02:40:13;99897.06;;;12.45;63.77
62508;BME280;48556;51.972;4.624;2022-09-27T02:42:40;99891.66;;;12.48;64.77
62508;BME280;48556;51.972;4.624;2022-09-27T02:45:09;99889.59;;;12.82;64.20
62508;BME280;48556;51.972;4.624;2022-09-27T02:58:46;99890.19;;;14.47;60.58
62508;BME280;48556;51.972;4.624;2022-09-27T03:04:10;99893.56;;;14.30;60.44
62508;BME280;48556;51.972;4.624;2022-09-27T03:06:44;99891.28;;;14.63;60.33
62508;BME280;48556;51.972;4.624;2022-09-27T03:09:19;99888.31;;;14.71;60.72
62508;BME280;48556;51.972;4.624;2022-09-27T03:11:45;99889.47;;;14.84;60.55
62508;BME280;48556;51.972;4.624;2022-09-27T03:14:10;99881.75;;;14.80;60.95
62508;BME280;48556;51.972;4.624;2022-09-27T03:16:36;99878.19;;;15.00;60.53
62508;BME280;48556;51.972;4.624;2022-09-27T03:19:01;99869.16;;;14.85;60.90
62508;BME280;48556;51.972;4.624;2022-09-27T03:21:27;99869.75;;;15.11;60.04
62508;BME280;48556;51.972;4.624;2022-09-27T03:23:53;99868.41;;;15.02;60.10
62508;BME280;48556;51.972;4.624;2022-09-27T03:26:18;99858.59;;;14.44;60.78
62508;BME280;48556;51.972;4.624;2022-09-27T03:28:44;99868.56;;;14.37;61.27
62508;BME280;48556;51.972;4.624;2022-09-27T03:31:10;99865.38;;;14.29;61.55
62508;BME280;48556;51.972;4.624;2022-09-27T03:33:35;99856.59;;;14.08;62.02
62508;BME280;48556;51.972;4.624;2022-09-27T03:36:01;99862.28;;;13.76;62.44
62508;BME280;48556;51.972;4.624;2022-09-27T03:38:27;99864.06;;;13.76;62.96
62508;BME280;48556;51.972;4.624;2022-09-27T03:40:53;99868.81;;;13.45;64.02
62508;BME280;48556;51.972;4.624;2022-09-27T03:43:18;99878.00;;;13.35;64.26
62508;BME280;48556;51.972;4.624;2022-09-27T03:45:44;99881.25;;;13.42;64.33
62508;BME280;48556;51.972;4.624;2022-09-27T03:48:10;99892.31;;;13.28;65.12
62508;BME280;48556;51.972;4.624;2022-09-27T03:50:35;99895.19;;;12.98;66.33
62508;BME280;48556;51.972;4.624;2022-09-27T03:53:01;99914.34;;;13.03;67.11
62508;BME280;48556;51.972;4.624;2022-09-27T03:55:26;99926.66;;;12.54;69.24
62508;BME280;48556;51.972;4.624;2022-09-27T03:57:52;99934.28;;;13.12;68.09
62508;BME280;48556;51.972;4.624;2022-09-27T04:00:18;99907.00;;;13.11;67.93
62508;BME280;48556;51.972;4.624;2022-09-27T04:02:44;99897.72;;;13.48;66.42
62508;BME280;48556;51.972;4.624;2022-09-27T04:05:10;99894.34;;;13.67;65.02
62508;BME280;48556;51.972;4.624;2022-09-27T04:07:35;99888.91;;;13.49;65.01
62508;BME280;48556;51.972;4.624;2022-09-27T04:10:03;99888.94;;;13.70;64.23
62508;BME280;48556;51.972;4.624;2022-09-27T04:12:28;99876.59;;;13.93;63.92
62508;BME280;48556;51.972;4.624;2022-09-27T04:14:54;99883.03;;;13.85;64.75
62508;BME280;48556;51.972;4.624;2022-09-27T04:17:20;99903.44;;;13.60;65.56
62508;BME280;48556;51.972;4.624;2022-09-27T04:19:46;99907.06;;;13.79;64.99
62508;BME280;48556;51.972;4.624;2022-09-27T04:22:11;99893.91;;;13.56;65.94
62508;BME280;48556;51.972;4.624;2022-09-27T04:24:38;99888.13;;;12.75;65.04
62508;BME280;48556;51.972;4.624;2022-09-27T04:27:04;99879.25;;;13.01;64.86
62508;BME280;48556;51.972;4.624;2022-09-27T04:29:29;99880.28;;;13.21;64.55
62508;BME280;48556;51.972;4.624;2022-09-27T04:31:56;99879.00;;;13.07;65.35
62508;BME280;48556;51.972;4.624;2022-09-27T04:34:21;99883.84;;;13.43;64.75
62508;BME280;48556;51.972;4.624;2022-09-27T04:37:07;99877.91;;;13.38;65.47
62508;BME280;48556;51.972;4.624;2022-09-27T04:39:32;99870.50;;;13.46;65.05
62508;BME280;48556;51.972;4.624;2022-09-27T04:41:59;99882.66;;;13.05;66.21
62508;BME280;48556;51.972;4.624;2022-09-27T04:44:24;99881.69;;;12.82;67.21
62508;BME280;48556;51.972;4.624;2022-09-27T04:46:49;99887.81;;;12.59;68.39
62508;BME280;48556;51.972;4.624;2022-09-27T04:49:15;99882.00;;;12.74;68.29
62508;BME280;48556;51.972;4.624;2022-09-27T04:51:40;99872.81;;;12.85;67.83
62508;BME280;48556;51.972;4.624;2022-09-27T04:54:06;99869.72;;;12.73;68.30
62508;BME280;48556;51.972;4.624;2022-09-27T04:56:31;99877.75;;;12.94;67.57
62508;BME280;48556;51.972;4.624;2022-09-27T04:58:57;99885.44;;;13.24;67.27
62508;BME280;48556;51.972;4.624;2022-09-27T05:01:23;99879.69;;;12.89;68.36
62508;BME280;48556;51.972;4.624;2022-09-27T05:03:48;99887.69;;;12.62;68.49
62508;BME280;48556;51.972;4.624;2022-09-27T05:06:14;99885.31;;;12.29;69.60
62508;BME280;48556;51.972;4.624;2022-09-27T05:08:39;99889.59;;;12.06;71.17
62508;BME280;48556;51.972;4.624;2022-09-27T05:11:05;99898.53;;;12.27;70.81
62508;BME280;48556;51.972;4.624;2022-09-27T05:13:31;99901.56;;;11.88;72.01
62508;BME280;48556;51.972;4.624;2022-09-27T05:16:03;99885.59;;;12.21;71.01
62508;BME280;48556;51.972;4.624;2022-09-27T05:18:29;99895.69;;;12.08;71.28
62508;BME280;48556;51.972;4.624;2022-09-27T05:20:55;99882.63;;;12.56;70.24
62508;BME280;48556;51.972;4.624;2022-09-27T05:23:23;99897.56;;;12.80;69.05
62508;BME280;48556;51.972;4.624;2022-09-27T05:25:49;99887.56;;;12.65;68.87
62508;BME280;48556;51.972;4.624;2022-09-27T05:28:14;99899.44;;;12.78;68.29
62508;BME280;48556;51.972;4.624;2022-09-27T05:30:40;99903.28;;;12.68;68.51
62508;BME280;48556;51.972;4.624;2022-09-27T05:33:05;99890.81;;;12.73;68.48
62508;BME280;48556;51.972;4.624;2022-09-27T05:35:31;99892.25;;;12.57;67.84
62508;BME280;48556;51.972;4.624;2022-09-27T05:37:59;99891.97;;;12.90;67.34
62508;BME280;48556;51.972;4.624;2022-09-27T05:40:25;99894.31;;;13.21;66.49
62508;BME280;48556;51.972;4.624;2022-09-27T05:42:54;99895.31;;;13.42;65.99
62508;BME280;48556;51.972;4.624;2022-09-27T05:45:22;99899.09;;;13.35;65.69
62508;BME280;48556;51.972;4.624;2022-09-27T05:47:58;99908.72;;;13.60;65.64
62508;BME280;48556;51.972;4.624;2022-09-27T05:50:24;99899.75;;;13.64;64.92
62508;BME280;48556;51.972;4.624;2022-09-27T05:52:51;99905.84;;;13.66;64.74
62508;BME280;48556;51.972;4.624;2022-09-27T05:55:17;99897.72;;;13.48;65.48
62508;BME280;48556;51.972;4.624;2022-09-27T05:57:53;99884.16;;;13.58;65.34
62508;BME280;48556;51.972;4.624;2022-09-27T06:00:19;99899.00;;;13.60;65.06
62508;BME280;48556;51.972;4.624;2022-09-27T06:02:52;99899.50;;;13.92;64.28
62508;BME280;48556;51.972;4.624;2022-09-27T06:05:17;99886.97;;;13.97;64.45
62508;BME280;48556;51.972;4.624;2022-09-27T06:07:44;99895.09;;;13.93;63.81
62508;BME280;48556;51.972;4.624;2022-09-27T06:10:10;99893.88;;;13.79;64.96
62508;BME280;48556;51.972;4.624;2022-09-27T06:12:36;99896.50;;;13.79;65.00
62508;BME280;48556;51.972;4.624;2022-09-27T06:15:02;99899.88;;;13.61;65.37
62508;BME280;48556;51.972;4.624;2022-09-27T06:17:28;99900.44;;;13.47;66.40
62508;BME280;48556;51.972;4.624;2022-09-27T06:19:54;99895.41;;;13.63;66.43
62508;BME280;48556;51.972;4.624;2022-09-27T06:22:19;99901.00;;;13.55;66.09
62508;BME280;48556;51.972;4.624;2022-09-27T06:24:45;99896.75;;;13.73;65.33
62508;BME280;48556;51.972;4.624;2022-09-27T06:27:10;99898.28;;;13.57;66.12
62508;BME280;48556;51.972;4.624;2022-09-27T06:29:36;99895.66;;;13.57;66.04
62508;BME280;48556;51.972;4.624;2022-09-27T06:32:01;99891.41;;;13.53;66.14
62508;BME280;48556;51.972;4.624;2022-09-27T06:34:27;99898.81;;;14.09;64.99
62508;BME280;48556;51.972;4.624;2022-09-27T06:36:52;99897.41;;;14.00;64.51
62508;BME280;48556;51.972;4.624;2022-09-27T06:39:18;99900.16;;;14.19;64.60
62508;BME280;48556;51.972;4.624;2022-09-27T06:41:44;99894.22;;;13.70;65.44
62508;BME280;48556;51.972;4.624;2022-09-27T06:44:09;99893.56;;;13.65;65.94
62508;BME280;48556;51.972;4.624;2022-09-27T06:46:35;99890.91;;;13.43;66.52
62508;BME280;48556;51.972;4.624;2022-09-27T06:49:02;99893.81;;;13.11;67.59
62508;BME280;48556;51.972;4.624;2022-09-27T06:51:27;99910.56;;;13.34;67.45
62508;BME280;48556;51.972;4.624;2022-09-27T06:53:53;99901.13;;;13.05;69.03
62508;BME280;48556;51.972;4.624;2022-09-27T06:56:18;99906.91;;;13.14;68.35
62508;BME280;48556;51.972;4.624;2022-09-27T06:58:44;99911.25;;;13.15;67.97
62508;BME280;48556;51.972;4.624;2022-09-27T07:01:28;99925.28;;;13.41;67.76
62508;BME280;48556;51.972;4.624;2022-09-27T07:03:53;99933.66;;;13.53;67.65
62508;BME280;48556;51.972;4.624;2022-09-27T07:06:20;99924.56;;;13.60;67.51
62508;BME280;48556;51.972;4.624;2022-09-27T07:08:52;99950.00;;;13.15;67.88
62508;BME280;48556;51.972;4.624;2022-09-27T07:11:19;99956.47;;;13.06;69.30
62508;BME280;48556;51.972;4.624;2022-09-27T07:13:46;99969.03;;;13.48;68.67
62508;BME280;48556;51.972;4.624;2022-09-27T07:16:13;99956.00;;;12.95;69.96
62508;BME280;48556;51.972;4.624;2022-09-27T07:18:42;99958.81;;;13.14;68.06
62508;BME280;48556;51.972;4.624;2022-09-27T07:53:11;99948.06;;;14.96;61.82
62508;BME280;48556;51.972;4.624;2022-09-27T07:55:38;99943.91;;;15.30;60.91
62508;BME280;48556;51.972;4.624;2022-09-27T07:58:07;99949.06;;;15.71;60.34
62508;BME280;48556;51.972;4.624;2022-09-27T08:00:35;99950.88;;;15.89;59.02
62508;BME280;48556;51.972;4.624;2022-09-27T08:03:10;99950.78;;;15.72;58.31
62508;BME280;48556;51.972;4.624;2022-09-27T08:05:38;99949.22;;;15.68;59.02
62508;BME280;48556;51.972;4.624;2022-09-27T08:08:04;99955.31;;;15.89;59.06
62508;BME280;48556;51.972;4.624;2022-09-27T08:10:31;99966.97;;;16.04;58.31
62508;BME280;48556;51.972;4.624;2022-09-27T08:12:58;99964.91;;;16.28;57.83
62508;BME280;48556;51.972;4.624;2022-09-27T08:15:25;99973.09;;;16.23;57.82
62508;BME280;48556;51.972;4.624;2022-09-27T08:17:53;99982.38;;;15.96;57.75
62508;BME280;48556;51.972;4.624;2022-09-27T08:20:18;99987.19;;;15.87;58.54
62508;BME280;48556;51.972;4.624;2022-09-27T08:22:44;99983.03;;;16.01;58.63
62508;BME280;48556;51.972;4.624;2022-09-27T08:25:10;99992.13;;;15.76;59.24
62508;BME280;48556;51.972;4.624;2022-09-27T08:27:36;99994.91;;;15.73;59.74
62508;BME280;48556;51.972;4.624;2022-09-27T08:30:02;99992.31;;;15.52;60.21
62508;BME280;48556;51.972;4.624;2022-09-27T08:32:28;99995.47;;;15.61;59.97
62508;BME280;48556;51.972;4.624;2022-09-27T08:34:55;99994.59;;;15.41;60.13
62508;BME280;48556;51.972;4.624;2022-09-27T08:37:21;99998.34;;;15.75;59.72
62508;BME280;48556;51.972;4.624;2022-09-27T08:39:47;100006.28;;;15.16;62.41
62508;BME280;48556;51.972;4.624;2022-09-27T08:44:50;100004.66;;;15.53;61.53
62508;BME280;48556;51.972;4.624;2022-09-27T08:50:23;100019.53;;;15.75;60.49
62508;BME280;48556;51.972;4.624;2022-09-27T08:52:57;100019.41;;;15.59;60.31
62508;BME280;48556;51.972;4.624;2022-09-27T08:58:10;99998.91;;;15.44;61.31
62508;BME280;48556;51.972;4.624;2022-09-27T09:00:38;100009.06;;;15.53;60.25
62508;BME280;48556;51.972;4.624;2022-09-27T09:03:04;100015.34;;;14.90;61.33
62508;BME280;48556;51.972;4.624;2022-09-27T09:05:32;100023.91;;;14.97;61.29
62508;BME280;48556;51.972;4.624;2022-09-27T09:14:26;99997.28;;;15.20;62.22
62508;BME280;48556;51.972;4.624;2022-09-27T09:17:07;99994.31;;;15.47;62.18
62508;BME280;48556;51.972;4.624;2022-09-27T09:25:18;99986.69;;;15.60;60.94
62508;BME280;48556;51.972;4.624;2022-09-27T09:28:09;99987.25;;;16.05;60.51
62508;BME280;48556;51.972;4.624;2022-09-27T09:30:59;99982.63;;;16.28;60.36
62508;BME280;48556;51.972;4.624;2022-09-27T09:36:57;99988.69;;;16.12;60.51
62508;BME280;48556;51.972;4.624;2022-09-27T09:39:37;99988.13;;;15.86;61.64
62508;BME280;48556;51.972;4.624;2022-09-27T09:45:00;99998.75;;;15.47;61.84
62508;BME280;48556;51.972;4.624;2022-09-27T09:47:35;100001.50;;;14.85;62.67
62508;BME280;48556;51.972;4.624;2022-09-27T09:50:05;100010.31;;;14.63;63.90
62508;BME280;48556;51.972;4.624;2022-09-27T09:52:44;100006.78;;;14.85;64.25
62508;BME280;48556;51.972;4.624;2022-09-27T09:55:28;100021.44;;;14.72;64.32
62508;BME280;48556;51.972;4.624;2022-09-27T10:00:27;100016.00;;;14.52;65.37
62508;BME280;48556;51.972;4.624;2022-09-27T10:02:57;100027.03;;;13.97;67.60
62508;BME280;48556;51.972;4.624;2022-09-27T10:05:25;100027.91;;;13.50;68.64
62508;BME280;48556;51.972;4.624;2022-09-27T10:07:55;100036.72;;;13.26;69.27
62508;BME280;48556;51.972;4.624;2022-09-27T10:10:22;100026.34;;;13.20;69.93
62508;BME280;48556;51.972;4.624;2022-09-27T10:12:48;100030.88;;;14.12;67.44
62508;BME280;48556;51.972;4.624;2022-09-27T10:15:27;100033.38;;;13.70;68.03
62508;BME280;48556;51.972;4.624;2022-09-27T10:17:56;100034.47;;;13.88;67.23
62508;BME280;48556;51.972;4.624;2022-09-27T10:23:00;100035.94;;;13.47;68.08
62508;BME280;48556;51.972;4.624;2022-09-27T10:25:46;100037.22;;;13.37;67.93
62508;BME280;48556;51.972;4.624;2022-09-27T10:28:34;100024.59;;;13.45;67.69
62508;BME280;48556;51.972;4.624;2022-09-27T10:31:07;100024.22;;;14.02;66.17
62508;BME280;48556;51.972;4.624;2022-09-27T10:33:38;100038.22;;;13.33;67.51
62508;BME280;48556;51.972;4.624;2022-09-27T10:36:27;100030.56;;;13.25;67.14
62508;BME280;48556;51.972;4.624;2022-09-27T10:38:59;100019.66;;;13.60;66.48
62508;BME280;48556;51.972;4.624;2022-09-27T10:41:41;100033.13;;;13.27;66.34
62508;BME280;48556;51.972;4.624;2022-09-27T10:46:54;100025.81;;;13.10;67.13
62508;BME280;48556;51.972;4.624;2022-09-27T10:49:37;100017.84;;;13.38;66.99
62508;BME280;48556;51.972;4.624;2022-09-27T10:52:13;100010.63;;;13.65;65.47
62508;BME280;48556;51.972;4.624;2022-09-27T10:54:41;100018.50;;;13.43;65.69
62508;BME280;48556;51.972;4.624;2022-09-27T10:59:41;99998.75;;;14.22;64.53
62508;BME280;48556;51.972;4.624;2022-09-27T11:02:28;100011.69;;;14.51;63.60
62508;BME280;48556;51.972;4.624;2022-09-27T11:05:06;100005.41;;;14.54;63.67
62508;BME280;48556;51.972;4.624;2022-09-27T11:07:35;100005.84;;;14.43;64.01
62508;BME280;48556;51.972;4.624;2022-09-27T11:10:28;100006.06;;;14.59;63.79
62508;BME280;48556;51.972;4.624;2022-09-27T11:13:15;100002.66;;;14.35;63.80
62508;BME280;48556;51.972;4.624;2022-09-27T11:42:53;99985.38;;;16.07;60.28
62508;BME280;48556;51.972;4.624;2022-09-27T11:51:29;99975.66;;;16.25;58.10
62508;BME280;48556;51.972;4.624;2022-09-27T12:07:20;99970.25;;;15.71;58.83
62508;BME280;48556;51.972;4.624;2022-09-27T12:09:54;99967.56;;;15.92;57.95
62508;BME280;48556;51.972;4.624;2022-09-27T12:12:27;99973.81;;;16.27;58.53
62508;BME280;48556;51.972;4.624;2022-09-27T12:15:24;99966.03;;;16.59;58.19
62508;BME280;48556;51.972;4.624;2022-09-27T12:17:53;99959.09;;;16.02;58.03
62508;BME280;48556;51.972;4.624;2022-09-27T12:20:24;99959.91;;;16.39;58.36
62508;BME280;48556;51.972;4.624;2022-09-27T12:26:03;99945.84;;;17.07;57.86
62508;BME280;48556;51.972;4.624;2022-09-27T12:28:48;99949.31;;;17.75;56.50
62508;BME280;48556;51.972;4.624;2022-09-27T12:34:26;99940.19;;;18.11;54.55
62508;BME280;48556;51.972;4.624;2022-09-27T12:42:35;99926.94;;;20.00;50.85
62508;BME280;48556;51.972;4.624;2022-09-27T12:45:03;99921.28;;;21.48;45.73
62508;BME280;48556;51.972;4.624;2022-09-27T12:50:42;99921.16;;;22.59;42.21
62508;BME280;48556;51.972;4.624;2022-09-27T12:53:22;99904.47;;;21.72;44.76
62508;BME280;48556;51.972;4.624;2022-09-27T12:56:18;99915.81;;;21.49;45.18
62508;BME280;48556;51.972;4.624;2022-09-27T13:04:45;99922.31;;;18.59;49.14
62508;BME280;48556;51.972;4.624;2022-09-27T13:07:19;99917.53;;;17.40;50.77
62508;BME280;48556;51.972;4.624;2022-09-27T13:12:49;99917.25;;;16.27;51.42
62508;BME280;48556;51.972;4.624;2022-09-27T13:17:57;99908.81;;;16.71;50.14
62508;BME280;48556;51.972;4.624;2022-09-27T13:22:56;99908.69;;;16.56;50.72
62508;BME280;48556;51.972;4.624;2022-09-27T13:30:55;99901.34;;;16.44;49.59
62508;BME280;48556;51.972;4.624;2022-09-27T13:33:43;99891.66;;;16.61;49.39
62508;BME280;48556;51.972;4.624;2022-09-27T13:47:03;99891.84;;;15.67;49.39
62508;BME280;48556;51.972;4.624;2022-09-27T13:49:39;99900.22;;;15.96;49.64
62508;BME280;48556;51.972;4.624;2022-09-27T13:54:57;99896.03;;;16.09;48.05
62508;BME280;48556;51.972;4.624;2022-09-27T13:57:46;99890.59;;;15.93;47.11
62508;BME280;48556;51.972;4.624;2022-09-27T14:00:23;99884.31;;;15.77;49.63
62508;BME280;48556;51.972;4.624;2022-09-27T14:05:46;99882.97;;;15.68;50.97
62508;BME280;48556;51.972;4.624;2022-09-27T14:10:53;99870.44;;;16.61;47.72
62508;BME280;48556;51.972;4.624;2022-09-27T14:13:23;99865.53;;;16.86;45.32
62508;BME280;48556;51.972;4.624;2022-09-27T14:15:52;99857.13;;;17.12;44.55
62508;BME280;48556;51.972;4.624;2022-09-27T14:18:20;99856.09;;;17.62;43.97
62508;BME280;48556;51.972;4.624;2022-09-27T14:20:50;99853.78;;;17.40;44.15
62508;BME280;48556;51.972;4.624;2022-09-27T14:23:21;99855.94;;;17.33;44.15
62508;BME280;48556;51.972;4.624;2022-09-27T14:25:49;99859.78;;;17.75;45.19
62508;BME280;48556;51.972;4.624;2022-09-27T14:28:27;99855.03;;;17.97;43.82
62508;BME280;48556;51.972;4.624;2022-09-27T14:31:16;99850.34;;;17.54;44.78
62508;BME280;48556;51.972;4.624;2022-09-27T14:33:43;99857.13;;;17.12;45.65
62508;BME280;48556;51.972;4.624;2022-09-27T14:36:32;99853.78;;;16.57;46.69
62508;BME280;48556;51.972;4.624;2022-09-27T14:39:30;99851.25;;;15.85;48.31
62508;BME280;48556;51.972;4.624;2022-09-27T14:42:02;99856.69;;;15.82;49.22
62508;BME280;48556;51.972;4.624;2022-09-27T14:44:29;99873.25;;;15.49;51.01
62508;BME280;48556;51.972;4.624;2022-09-27T14:47:09;99885.06;;;15.80;52.87
62508;BME280;48556;51.972;4.624;2022-09-27T14:49:45;99887.31;;;15.32;55.04
62508;BME280;48556;51.972;4.624;2022-09-27T14:52:27;99892.31;;;14.80;57.13
62508;BME280;48556;51.972;4.624;2022-09-27T14:55:08;99878.19;;;15.00;58.24
62508;BME280;48556;51.972;4.624;2022-09-27T14:57:35;99870.31;;;14.79;58.32
62508;BME280;48556;51.972;4.624;2022-09-27T15:00:21;99857.84;;;14.61;57.97
62508;BME280;48556;51.972;4.624;2022-09-27T15:02:50;99852.28;;;15.07;57.97
62508;BME280;48556;51.972;4.624;2022-09-27T15:05:25;99847.28;;;15.00;57.86
62508;BME280;48556;51.972;4.624;2022-09-27T15:07:52;99859.66;;;15.19;56.33
62508;BME280;48556;51.972;4.624;2022-09-27T15:10:22;99869.47;;;15.36;57.74
62508;BME280;48556;51.972;4.624;2022-09-27T15:12:50;99886.63;;;15.08;58.90
62508;BME280;48556;51.972;4.624;2022-09-27T15:15:28;99869.81;;;15.09;59.35
62508;BME280;48556;51.972;4.624;2022-09-27T15:17:56;99873.47;;;15.07;59.51
62508;BME280;48556;51.972;4.624;2022-09-27T15:20:26;99873.75;;;15.19;58.95
62508;BME280;48556;51.972;4.624;2022-09-27T15:23:00;99871.00;;;14.83;60.16
62508;BME280;48556;51.972;4.624;2022-09-27T15:25:33;99862.03;;;15.06;59.53
62508;BME280;48556;51.972;4.624;2022-09-27T15:28:11;99852.56;;;15.58;58.92
62508;BME280;48556;51.972;4.624;2022-09-27T15:30:47;99848.75;;;15.82;59.75
62508;BME280;48556;51.972;4.624;2022-09-27T15:33:27;99845.25;;;16.17;58.71
62508;BME280;48556;51.972;4.624;2022-09-27T15:36:02;99836.03;;;16.42;57.74
62508;BME280;48556;51.972;4.624;2022-09-27T15:38:33;99828.47;;;16.67;55.43
62508;BME280;48556;51.972;4.624;2022-09-27T15:41:08;99825.44;;;16.75;54.62
62508;BME280;48556;51.972;4.624;2022-09-27T15:51:51;99820.81;;;16.28;56.86
62508;BME280;48556;51.972;4.624;2022-09-27T15:54:23;99823.31;;;16.48;56.92
62508;BME280;48556;51.972;4.624;2022-09-27T15:56:51;99819.03;;;16.62;57.36
62508;BME280;48556;51.972;4.624;2022-09-27T15:59:21;99820.56;;;16.83;57.30
62508;BME280;48556;51.972;4.624;2022-09-27T16:01:51;99814.56;;;16.80;56.95
62508;BME280;48556;51.972;4.624;2022-09-27T16:04:19;99815.63;;;16.60;57.61
62508;BME280;48556;51.972;4.624;2022-09-27T16:06:45;99813.75;;;16.11;58.66
62508;BME280;48556;51.972;4.624;2022-09-27T16:09:18;99807.09;;;16.19;58.51
62508;BME280;48556;51.972;4.624;2022-09-27T16:11:48;99808.88;;;16.36;58.36
62508;BME280;48556;51.972;4.624;2022-09-27T16:14:15;99811.69;;;16.16;58.75
62508;BME280;48556;51.972;4.624;2022-09-27T16:16:45;99806.72;;;16.10;59.02
62508;BME280;48556;51.972;4.624;2022-09-27T16:19:12;99803.69;;;16.00;59.69
62508;BME280;48556;51.972;4.624;2022-09-27T16:21:37;99805.53;;;16.15;59.01
62508;BME280;48556;51.972;4.624;2022-09-27T16:24:03;99812.88;;;16.10;58.92
62508;BME280;48556;51.972;4.624;2022-09-27T16:26:29;99812.75;;;15.77;59.96
62508;BME280;48556;51.972;4.624;2022-09-27T16:28:55;99810.41;;;15.89;59.56
62508;BME280;48556;51.972;4.624;2022-09-27T16:31:20;99814.44;;;15.79;60.12
62508;BME280;48556;51.972;4.624;2022-09-27T16:33:49;99813.00;;;15.72;59.68
62508;BME280;48556;51.972;4.624;2022-09-27T16:36:15;99816.34;;;15.39;60.84
62508;BME280;48556;51.972;4.624;2022-09-27T16:38:51;99817.06;;;15.43;60.71
62508;BME280;48556;51.972;4.624;2022-09-27T16:41:18;99810.00;;;15.24;61.06
62508;BME280;48556;51.972;4.624;2022-09-27T16:43:45;99801.34;;;15.20;61.68
62508;BME280;48556;51.972;4.624;2022-09-27T16:46:13;99806.63;;;15.20;61.18
62508;BME280;48556;51.972;4.624;2022-09-27T16:48:45;99799.84;;;15.34;61.07
62508;BME280;48556;51.972;4.624;2022-09-27T16:51:17;99794.72;;;15.48;61.00
62508;BME280;48556;51.972;4.624;2022-09-27T16:54:03;99789.03;;;15.19;61.50
62508;BME280;48556;51.972;4.624;2022-09-27T16:56:34;99797.63;;;15.61;60.72
62508;BME280;48556;51.972;4.624;2022-09-27T16:59:00;99801.16;;;15.06;61.07
62508;BME280;48556;51.972;4.624;2022-09-27T17:01:29;99801.41;;;15.00;61.92
62508;BME280;48556;51.972;4.624;2022-09-27T17:03:54;99806.06;;;15.14;61.72